Time;durP1;ratioP1;P1;durP2;ratioP2;P2;SDS_P1;SDS_P2;PMS_P1;PMS_P2;Temp;Humidity;BMP_temperature;BMP_pressure;BME280_temperature;BME280_humidity;BME280_pressure;Samples;Min_cycle;Max_cycle;Signal;HPM_P1;HPM_P2
2022/04/29 00:02:22;;;;;;;22.95;12.55;;;9.00;94.40;;;;;;5017833;28;20401;-76
2022/04/29 00:04:48;;;;;;;23.65;12.27;;;8.90;97.00;;;;;;5027303;28;20041;-76
2022/04/29 00:07:15;;;;;;;24.20;12.68;;;8.90;96.30;;;;;;5026010;28;20037;-76
2022/04/29 00:09:41;;;;;;;19.60;13.43;;;8.90;98.70;;;;;;5026161;28;20025;-76
2022/04/29 00:12:07;;;;;;;20.77;12.43;;;8.80;99.10;;;;;;5025426;28;20033;-76
2022/04/29 00:14:32;;;;;;;21.45;13.60;;;8.80;99.70;;;;;;5008312;28;20408;-76
2022/04/29 00:16:58;;;;;;;22.20;13.40;;;8.80;99.90;;;;;;5042436;28;20033;-76
2022/04/29 00:19:23;;;;;;;21.92;13.20;;;8.70;99.90;;;;;;5043781;28;20037;-76
2022/04/29 00:21:49;;;;;;;20.98;13.05;;;8.70;99.90;;;;;;5026132;28;20033;-76
2022/04/29 00:24:14;;;;;;;27.40;13.45;;;8.70;99.90;;;;;;5024348;28;20049;-75
2022/04/29 00:26:40;;;;;;;19.58;12.68;;;8.70;99.90;;;;;;5027388;28;20025;-75
2022/04/29 00:29:06;;;;;;;22.95;12.95;;;8.60;99.90;;;;;;5007521;28;20033;-75
2022/04/29 00:31:32;;;;;;;21.67;15.20;;;8.60;99.90;;;;;;5022739;28;20255;-75
2022/04/29 00:33:57;;;;;;;19.67;13.13;;;8.60;99.90;;;;;;5008076;28;20033;-75
2022/04/29 00:36:23;;;;;;;22.63;12.52;;;8.70;99.90;;;;;;5010003;28;20440;-75
2022/04/29 00:38:49;;;;;;;22.10;13.70;;;8.70;99.90;;;;;;5023238;28;20038;-75
2022/04/29 00:41:18;;;;;;;21.65;13.85;;;8.60;99.90;;;;;;5025087;28;20101;-75
2022/04/29 00:43:43;;;;;;;18.88;13.52;;;8.60;99.90;;;;;;5042368;28;20096;-75
2022/04/29 00:46:09;;;;;;;20.23;13.27;;;8.60;99.90;;;;;;5046728;28;20049;-75
2022/04/29 00:48:35;;;;;;;21.10;14.32;;;8.60;99.90;;;;;;5025642;28;20075;-75
2022/04/29 00:51:00;;;;;;;17.77;12.77;;;8.60;99.90;;;;;;5017560;28;20038;-75
2022/04/29 00:53:26;;;;;;;19.10;13.23;;;8.50;99.90;;;;;;5001978;28;20029;-75
2022/04/29 00:55:52;;;;;;;20.17;14.25;;;8.40;99.90;;;;;;5008272;28;20420;-75
2022/04/29 00:58:21;;;;;;;21.40;13.07;;;8.30;99.90;;;;;;5001963;28;20032;-75
2022/04/29 01:00:47;;;;;;;21.02;14.48;;;8.30;99.90;;;;;;5008136;28;20120;-75
2022/04/29 01:03:14;;;;;;;28.35;15.40;;;8.30;99.90;;;;;;5010705;28;20128;-75
2022/04/29 01:05:40;;;;;;;23.10;12.95;;;8.30;99.90;;;;;;5025412;28;20087;-75
2022/04/29 01:08:06;;;;;;;26.27;15.38;;;8.40;99.90;;;;;;5009861;28;20026;-75
2022/04/29 01:10:31;;;;;;;24.13;14.13;;;8.30;99.90;;;;;;5025289;28;20021;-75
2022/04/29 01:13:01;;;;;;;21.70;12.93;;;8.30;99.90;;;;;;5039547;28;20025;-75
2022/04/29 01:15:26;;;;;;;21.30;13.23;;;8.20;99.90;;;;;;5023540;28;20433;-75
2022/04/29 01:17:55;;;;;;;19.35;13.73;;;8.20;99.90;;;;;;5007536;28;20433;-75
2022/04/29 01:20:24;;;;;;;22.73;13.80;;;8.20;99.90;;;;;;5025038;28;20083;-75
2022/04/29 01:22:50;;;;;;;23.00;14.13;;;8.10;99.90;;;;;;5024647;28;20034;-75
2022/04/29 01:25:15;;;;;;;24.35;14.50;;;8.10;99.90;;;;;;5043838;28;20048;-75
2022/04/29 01:27:41;;;;;;;22.58;14.30;;;8.00;99.90;;;;;;5024107;28;20036;-75
2022/04/29 01:30:11;;;;;;;23.17;14.23;;;8.00;99.90;;;;;;5007977;28;25366;-76
2022/04/29 01:32:37;;;;;;;22.60;14.43;;;7.80;99.90;;;;;;5027372;28;20070;-75
2022/04/29 01:35:03;;;;;;;22.67;14.23;;;7.90;99.90;;;;;;5027368;28;20489;-75
2022/04/29 01:37:29;;;;;;;27.05;14.15;;;7.80;99.90;;;;;;5022233;28;20116;-76
2022/04/29 01:39:55;;;;;;;23.90;14.27;;;7.80;99.90;;;;;;5039642;28;20026;-75
2022/04/29 01:42:21;;;;;;;25.23;15.02;;;7.90;99.90;;;;;;5025251;28;20041;-75
2022/04/29 01:44:46;;;;;;;20.75;15.15;;;7.80;99.90;;;;;;5041527;28;20069;-75
2022/04/29 01:47:12;;;;;;;29.02;15.43;;;7.80;99.90;;;;;;5025133;28;20136;-75
2022/04/29 01:49:38;;;;;;;25.27;13.93;;;7.70;99.90;;;;;;5026416;28;20037;-75
2022/04/29 01:52:04;;;;;;;23.00;15.55;;;7.70;99.90;;;;;;5021595;28;20036;-75
2022/04/29 01:54:29;;;;;;;29.10;16.35;;;7.60;99.90;;;;;;5024903;28;20044;-75
2022/04/29 01:56:55;;;;;;;29.08;15.10;;;7.60;99.90;;;;;;5026387;28;20033;-76
2022/04/29 01:59:21;;;;;;;27.48;16.50;;;7.60;99.90;;;;;;5039497;28;20037;-76
2022/04/29 02:01:46;;;;;;;25.15;16.25;;;7.60;99.90;;;;;;5028322;28;20030;-75
2022/04/29 02:04:13;;;;;;;28.00;16.08;;;7.60;99.90;;;;;;5029408;28;20036;-75
2022/04/29 02:06:38;;;;;;;24.27;16.25;;;7.60;99.90;;;;;;5048138;28;20044;-75
2022/04/29 02:09:05;;;;;;;27.08;15.32;;;7.60;99.90;;;;;;5027546;28;20467;-76
2022/04/29 02:11:30;;;;;;;28.23;17.13;;;7.40;99.90;;;;;;5012317;28;20156;-75
2022/04/29 02:13:56;;;;;;;26.20;16.02;;;7.50;99.90;;;;;;5029668;28;20045;-75
2022/04/29 02:16:22;;;;;;;23.70;14.82;;;7.40;99.90;;;;;;5028435;28;20035;-75
2022/04/29 02:18:47;;;;;;;26.52;16.80;;;7.50;99.90;;;;;;5044974;28;20412;-75
2022/04/29 02:21:13;;;;;;;30.17;16.70;;;7.30;99.90;;;;;;5028195;28;20473;-75
2022/04/29 02:23:38;;;;;;;25.75;15.18;;;7.40;99.90;;;;;;5027336;28;20037;-75
2022/04/29 02:26:04;;;;;;;24.50;14.85;;;7.30;99.90;;;;;;5045782;28;20044;-75
2022/04/29 02:28:31;;;;;;;24.08;14.52;;;7.20;99.90;;;;;;5010603;28;20428;-75
2022/04/29 02:30:57;;;;;;;27.85;16.58;;;7.20;99.90;;;;;;5027058;28;20504;-75
2022/04/29 02:33:22;;;;;;;22.50;13.95;;;7.30;99.90;;;;;;5028675;28;20304;-75
2022/04/29 02:35:48;;;;;;;28.17;14.50;;;7.40;99.90;;;;;;5011664;28;20037;-75
2022/04/29 02:38:14;;;;;;;25.80;14.95;;;7.20;99.90;;;;;;5045454;28;20036;-75
2022/04/29 02:40:39;;;;;;;24.52;15.00;;;7.20;99.90;;;;;;5026378;28;20044;-75
2022/04/29 02:43:05;;;;;;;28.33;16.58;;;7.10;99.90;;;;;;5043742;28;20033;-75
2022/04/29 02:45:30;;;;;;;20.42;14.30;;;7.10;99.90;;;;;;5027241;28;20457;-75
2022/04/29 02:47:56;;;;;;;26.55;15.05;;;7.20;99.90;;;;;;5014673;28;20384;-77
2022/04/29 02:50:21;;;;;;;27.40;14.80;;;7.10;99.90;;;;;;5009646;28;20030;-77
2022/04/29 02:52:47;;;;;;;33.30;15.80;;;7.20;99.90;;;;;;5043681;28;20053;-77
2022/04/29 02:55:13;;;;;;;29.25;14.70;;;7.10;99.90;;;;;;5025559;28;20030;-77
2022/04/29 02:57:38;;;;;;;25.33;14.48;;;7.10;99.90;;;;;;5045285;28;20021;-75
2022/04/29 03:00:04;;;;;;;21.23;13.43;;;7.10;99.90;;;;;;5042657;28;20030;-75
2022/04/29 03:02:30;;;;;;;29.38;14.05;;;7.10;99.90;;;;;;5027786;28;20026;-75
2022/04/29 03:04:55;;;;;;;28.92;14.63;;;7.00;99.90;;;;;;5043258;28;20095;-75
2022/04/29 03:07:21;;;;;;;22.85;13.07;;;6.90;99.90;;;;;;5028971;28;20048;-75
2022/04/29 03:09:48;;;;;;;26.65;13.07;;;6.80;99.90;;;;;;5026133;28;20080;-75
2022/04/29 03:12:14;;;;;;;21.85;13.00;;;6.90;99.90;;;;;;5041782;28;20037;-75
2022/04/29 03:14:40;;;;;;;22.88;13.35;;;7.00;99.90;;;;;;5029533;28;20389;-75
2022/04/29 03:17:05;;;;;;;27.30;13.55;;;6.80;99.90;;;;;;5027822;28;20030;-75
2022/04/29 03:19:31;;;;;;;18.70;13.18;;;6.90;99.90;;;;;;5044142;28;20033;-75
2022/04/29 03:21:56;;;;;;;26.17;13.77;;;6.80;99.90;;;;;;5044562;28;20033;-75
2022/04/29 03:24:22;;;;;;;23.55;12.82;;;6.80;99.90;;;;;;5042682;28;20033;-75
2022/04/29 03:26:47;;;;;;;23.70;11.80;;;6.70;99.90;;;;;;5027348;28;20233;-75
2022/04/29 03:29:13;;;;;;;23.25;12.13;;;6.80;99.90;;;;;;5042312;28;20115;-76
2022/04/29 03:31:39;;;;;;;18.65;11.98;;;6.70;99.90;;;;;;5028469;28;20124;-75
2022/04/29 03:34:04;;;;;;;20.40;11.73;;;6.80;99.90;;;;;;5043557;28;20040;-75
2022/04/29 03:36:30;;;;;;;20.65;10.82;;;6.70;99.90;;;;;;5025073;28;20473;-75
2022/04/29 03:38:56;;;;;;;23.00;10.57;;;6.70;99.90;;;;;;5042267;28;20057;-75
2022/04/29 03:41:22;;;;;;;20.45;12.05;;;6.80;99.90;;;;;;5027305;28;20025;-75
2022/04/29 03:43:48;;;;;;;24.05;12.10;;;6.70;99.90;;;;;;5023188;28;20094;-75
2022/04/29 03:46:14;;;;;;;22.60;10.35;;;6.60;99.90;;;;;;5027288;28;20112;-75
2022/04/29 03:51:24;;;;;;;19.63;10.55;;;6.60;99.90;;;;;;5038480;28;20040;-75
2022/04/29 03:53:49;;;;;;;17.13;10.55;;;6.60;99.90;;;;;;5040195;28;20468;-75
2022/04/29 03:56:16;;;;;;;17.10;10.02;;;6.50;99.90;;;;;;5044323;28;20083;-75
2022/04/29 03:58:41;;;;;;;17.65;10.27;;;6.50;99.90;;;;;;5026991;28;20061;-75
2022/04/29 04:01:07;;;;;;;17.17;9.43;;;6.50;99.90;;;;;;5028776;28;20114;-75
2022/04/29 04:03:32;;;;;;;17.38;9.63;;;6.50;99.90;;;;;;5028878;28;20136;-75
2022/04/29 04:08:42;;;;;;;18.75;9.82;;;6.50;99.90;;;;;;5009207;28;20488;-75
2022/04/29 04:11:07;;;;;;;19.55;10.93;;;6.40;99.90;;;;;;5007848;28;20050;-76
2022/04/29 04:13:33;;;;;;;17.15;10.30;;;6.50;99.90;;;;;;4994370;28;20414;-75
2022/04/29 04:15:58;;;;;;;16.25;10.57;;;6.40;99.90;;;;;;4989762;28;20033;-75
2022/04/29 04:18:24;;;;;;;16.23;9.68;;;6.50;99.90;;;;;;5006071;28;20037;-75
2022/04/29 04:20:49;;;;;;;20.13;9.48;;;6.40;99.90;;;;;;5005755;28;20432;-75
2022/04/29 04:23:15;;;;;;;21.73;11.15;;;6.40;99.90;;;;;;5006113;28;20115;-75
2022/04/29 04:25:41;;;;;;;22.45;10.65;;;6.30;99.90;;;;;;4989158;28;20029;-75
2022/04/29 04:28:06;;;;;;;20.13;10.18;;;6.30;99.90;;;;;;4992715;28;20099;-75
2022/04/29 04:30:32;;;;;;;18.52;12.20;;;6.40;99.90;;;;;;5008808;28;20038;-75
2022/04/29 04:32:57;;;;;;;24.48;10.82;;;6.40;99.90;;;;;;4992961;28;20026;-75
2022/04/29 04:35:23;;;;;;;23.67;10.98;;;6.40;99.90;;;;;;5027035;28;20084;-76
2022/04/29 04:37:48;;;;;;;24.15;11.00;;;6.40;99.90;;;;;;5009937;28;20040;-75
2022/04/29 04:40:14;;;;;;;26.48;10.45;;;6.30;99.90;;;;;;5007070;28;20034;-75
2022/04/29 04:42:44;;;;;;;24.38;12.50;;;6.40;99.90;;;;;;5006488;28;20021;-75
2022/04/29 04:45:10;;;;;;;17.55;10.20;;;6.40;99.90;;;;;;5006890;28;20072;-75
2022/04/29 04:47:35;;;;;;;23.60;11.48;;;6.40;99.90;;;;;;5007608;28;20107;-75
2022/04/29 04:50:01;;;;;;;20.50;10.82;;;6.40;99.90;;;;;;5006795;28;20026;-75
2022/04/29 04:52:26;;;;;;;21.27;11.20;;;6.40;99.90;;;;;;5006446;28;20030;-75
2022/04/29 04:54:52;;;;;;;22.58;10.80;;;6.50;99.90;;;;;;5006865;28;20052;-75
2022/04/29 04:57:17;;;;;;;21.80;10.35;;;6.50;99.90;;;;;;4989518;28;20580;-75
2022/04/29 04:59:43;;;;;;;20.70;11.32;;;6.50;99.90;;;;;;4990613;28;20034;-75
2022/04/29 05:02:08;;;;;;;22.65;10.77;;;6.50;99.90;;;;;;5006780;28;20066;-75
2022/04/29 05:04:34;;;;;;;19.85;11.07;;;6.50;99.90;;;;;;5010131;28;20511;-75
2022/04/29 05:06:59;;;;;;;24.05;11.50;;;6.60;99.90;;;;;;5026508;28;20033;-75
2022/04/29 05:09:25;;;;;;;19.15;10.48;;;6.60;99.90;;;;;;5028493;28;20037;-75
2022/04/29 05:11:51;;;;;;;19.63;10.20;;;6.70;99.90;;;;;;5026799;28;20512;-75
2022/04/29 05:14:16;;;;;;;31.88;12.10;;;6.80;99.90;;;;;;5041111;28;20167;-75
2022/04/29 05:16:42;;;;;;;19.48;10.55;;;6.80;99.90;;;;;;5041430;28;20121;-75
2022/04/29 05:19:07;;;;;;;21.92;10.27;;;6.90;99.90;;;;;;5025991;28;20306;-75
2022/04/29 05:21:33;;;;;;;22.65;11.63;;;7.00;99.90;;;;;;5023912;28;20033;-75
2022/04/29 05:23:58;;;;;;;22.45;10.25;;;6.90;99.90;;;;;;5008721;28;20065;-75
2022/04/29 05:26:24;;;;;;;21.35;10.75;;;7.00;99.90;;;;;;5009608;28;20029;-75
2022/04/29 05:28:49;;;;;;;19.52;10.52;;;7.00;99.90;;;;;;5025806;28;20363;-76
2022/04/29 05:31:15;;;;;;;18.35;10.32;;;7.00;99.90;;;;;;5024477;28;20053;-76
2022/04/29 05:33:40;;;;;;;21.98;10.48;;;7.10;99.90;;;;;;5042652;28;20063;-76
2022/04/29 05:36:07;;;;;;;32.55;12.30;;;7.10;99.90;;;;;;5025662;28;20116;-76
2022/04/29 05:44:00;;;;;;;18.95;10.50;;;7.10;99.90;;;;;;5025628;28;20041;-75
2022/04/29 05:46:26;;;;;;;17.63;10.30;;;7.20;99.90;;;;;;5043415;28;20041;-75
2022/04/29 05:48:52;;;;;;;22.50;10.40;;;7.30;99.90;;;;;;5023236;28;20030;-76
2022/04/29 05:51:17;;;;;;;21.40;10.50;;;7.30;99.90;;;;;;5042338;28;20396;-76
2022/04/29 05:53:43;;;;;;;24.00;11.98;;;7.40;99.90;;;;;;5026029;28;20026;-76
2022/04/29 05:56:08;;;;;;;19.67;11.10;;;7.50;99.90;;;;;;5024924;28;20032;-75
2022/04/29 05:58:34;;;;;;;19.35;9.57;;;7.60;99.90;;;;;;5021334;28;20072;-75
2022/04/29 06:00:59;;;;;;;19.02;10.65;;;7.80;99.90;;;;;;5041833;28;20477;-75
2022/04/29 06:03:25;;;;;;;20.27;10.70;;;7.90;99.90;;;;;;5041293;28;20100;-76
2022/04/29 06:05:51;;;;;;;18.73;9.98;;;8.00;99.90;;;;;;5023155;28;20030;-76
2022/04/29 06:08:16;;;;;;;20.85;11.82;;;8.10;99.90;;;;;;5026321;28;20090;-75
2022/04/29 06:10:42;;;;;;;26.15;11.18;;;8.30;99.90;;;;;;5007001;28;20025;-76
2022/04/29 06:13:08;;;;;;;21.75;11.10;;;8.50;99.90;;;;;;5036381;28;20102;-76
2022/04/29 06:15:34;;;;;;;19.58;11.27;;;8.60;99.90;;;;;;5040780;28;20026;-76
2022/04/29 06:17:59;;;;;;;24.08;11.15;;;8.90;99.90;;;;;;5003775;28;20026;-76
2022/04/29 06:20:25;;;;;;;23.63;10.95;;;9.10;99.90;;;;;;5041097;28;20033;-75
2022/04/29 06:22:50;;;;;;;25.45;11.27;;;9.30;99.90;;;;;;5028148;28;20142;-76
2022/04/29 06:25:18;;;;;;;18.85;9.98;;;9.50;99.90;;;;;;5006598;28;20072;-76
2022/04/29 06:27:44;;;;;;;21.52;10.65;;;9.70;99.90;;;;;;5009138;28;20053;-76
2022/04/29 06:30:10;;;;;;;21.55;9.98;;;9.90;99.90;;;;;;5005373;28;20033;-76
2022/04/29 06:32:35;;;;;;;27.42;11.18;;;10.10;99.90;;;;;;5009732;28;20563;-76
2022/04/29 06:35:02;;;;;;;22.92;10.63;;;10.30;99.90;;;;;;5023421;28;20029;-76
2022/04/29 06:37:27;;;;;;;20.67;10.80;;;10.50;99.90;;;;;;5022266;28;20116;-76
2022/04/29 06:39:53;;;;;;;18.88;10.55;;;10.60;99.90;;;;;;5024850;28;20120;-76
2022/04/29 06:42:18;;;;;;;19.17;9.75;;;10.80;99.90;;;;;;5021185;28;20039;-76
2022/04/29 06:44:44;;;;;;;22.83;10.32;;;10.90;99.90;;;;;;5023533;28;20025;-76
2022/04/29 06:47:09;;;;;;;18.50;10.25;;;11.10;99.90;;;;;;5018559;28;20405;-76
2022/04/29 06:49:36;;;;;;;21.48;10.88;;;11.30;99.90;;;;;;5010693;28;20021;-76
2022/04/29 06:52:02;;;;;;;20.52;10.02;;;11.40;99.90;;;;;;5002124;28;20030;-76
2022/04/29 06:54:28;;;;;;;26.90;10.82;;;11.40;99.90;;;;;;5027475;28;20057;-76
2022/04/29 06:56:53;;;;;;;16.67;9.85;;;11.40;99.90;;;;;;4992726;28;20068;-76
2022/04/29 06:59:19;;;;;;;13.70;8.00;;;11.60;99.90;;;;;;4992019;28;20120;-76
2022/04/29 07:01:44;;;;;;;22.75;10.20;;;11.60;99.90;;;;;;5008217;28;20080;-76
2022/04/29 07:04:10;;;;;;;22.77;10.18;;;11.60;99.90;;;;;;5011106;28;20163;-76
2022/04/29 07:06:35;;;;;;;23.42;10.75;;;11.70;99.90;;;;;;5027639;28;20021;-76
2022/04/29 07:09:03;;;;;;;20.45;10.93;;;11.80;99.90;;;;;;5013612;28;20025;-76
2022/04/29 07:11:31;;;;;;;18.50;10.40;;;11.80;99.90;;;;;;5029588;28;20033;-76
2022/04/29 07:13:57;;;;;;;22.20;10.48;;;11.80;99.90;;;;;;5027260;28;20508;-76
2022/04/29 07:16:22;;;;;;;17.98;10.25;;;12.00;99.90;;;;;;5024030;28;20627;-77
2022/04/29 07:18:48;;;;;;;21.58;10.50;;;12.00;99.90;;;;;;5044872;28;20025;-76
2022/04/29 07:21:14;;;;;;;21.63;10.98;;;12.10;99.90;;;;;;5027343;28;20061;-76
2022/04/29 07:23:39;;;;;;;16.48;10.57;;;12.20;99.90;;;;;;5009890;28;20631;-76
2022/04/29 07:26:05;;;;;;;20.20;10.68;;;12.40;99.90;;;;;;5025025;28;20032;-76
2022/04/29 07:28:30;;;;;;;18.83;11.50;;;12.60;99.90;;;;;;5045064;28;20048;-76
2022/04/29 07:30:57;;;;;;;20.67;9.80;;;12.80;99.90;;;;;;5041801;28;20413;-76
2022/04/29 07:33:25;;;;;;;22.05;10.90;;;13.10;99.90;;;;;;5023441;28;20026;-76
2022/04/29 07:44:03;;;;;;;23.98;10.07;;;14.20;99.90;;;;;;5041931;28;20315;-76
2022/04/29 07:46:29;;;;;;;28.05;12.13;;;14.60;99.90;;;;;;5025782;28;20025;-76
2022/04/29 07:48:54;;;;;;;18.92;9.75;;;15.00;99.90;;;;;;5011343;28;20392;-77
2022/04/29 07:51:20;;;;;;;22.00;11.30;;;15.50;99.90;;;;;;5009713;28;20033;-76
2022/04/29 07:53:46;;;;;;;20.83;11.05;;;15.70;99.90;;;;;;5025450;28;20485;-77
2022/04/29 07:56:11;;;;;;;14.13;8.63;;;16.20;99.90;;;;;;5043126;28;20040;-76
2022/04/29 07:58:38;;;;;;;22.70;9.07;;;16.10;99.90;;;;;;5023944;28;20032;-77
2022/04/29 08:01:09;;;;;;;20.40;9.95;;;16.40;99.90;;;;;;5026249;28;20025;-77
2022/04/29 08:03:36;;;;;;;19.35;9.52;;;16.60;99.90;;;;;;5009001;28;20061;-77
2022/04/29 08:06:02;;;;;;;18.50;10.77;;;16.80;99.90;;;;;;5025391;28;20080;-77
2022/04/29 08:08:28;;;;;;;20.00;10.82;;;16.90;99.90;;;;;;5031420;28;20037;-77
2022/04/29 08:10:53;;;;;;;22.02;10.75;;;17.20;99.90;;;;;;5045532;28;20455;-77
2022/04/29 08:13:19;;;;;;;18.42;10.55;;;17.20;99.90;;;;;;5043204;28;20037;-76
2022/04/29 08:15:46;;;;;;;17.20;10.18;;;17.10;99.90;;;;;;5026194;28;20033;-77
2022/04/29 08:18:12;;;;;;;16.17;10.82;;;17.20;99.90;;;;;;5042421;28;20060;-76
2022/04/29 08:20:38;;;;;;;19.27;10.55;;;17.20;99.90;;;;;;5010868;28;20017;-77
2022/04/29 08:23:04;;;;;;;22.63;10.45;;;17.10;99.70;;;;;;5009990;28;20048;-77
2022/04/29 08:25:29;;;;;;;17.15;8.90;;;17.10;99.90;;;;;;5024821;28;20064;-76
2022/04/29 08:27:55;;;;;;;18.30;9.80;;;17.00;99.30;;;;;;5027187;28;20042;-77
2022/04/29 08:30:20;;;;;;;19.52;9.60;;;17.00;99.10;;;;;;5024195;28;20408;-77
2022/04/29 08:32:46;;;;;;;20.05;9.00;;;17.00;99.10;;;;;;5009629;28;20030;-77
2022/04/29 08:35:12;;;;;;;13.70;9.15;;;17.00;99.00;;;;;;5027253;28;20045;-77
2022/04/29 08:37:41;;;;;;;19.98;10.25;;;17.00;99.20;;;;;;5023858;28;20034;-77
2022/04/29 08:40:07;;;;;;;16.35;9.15;;;17.00;98.20;;;;;;5009004;28;20682;-77
2022/04/29 08:42:37;;;;;;;17.40;9.27;;;17.00;98.30;;;;;;5005643;28;20376;-77
2022/04/29 08:45:14;;;;;;;13.07;9.00;;;16.90;98.30;;;;;;5013642;28;20430;-77
2022/04/29 08:47:41;;;;;;;19.02;10.68;;;16.90;98.50;;;;;;5042845;28;20488;-77
2022/04/29 08:50:33;;;;;;;20.02;8.77;;;16.90;97.90;;;;;;5027840;28;20040;-77
2022/04/29 08:52:58;;;;;;;13.38;9.20;;;16.90;98.00;;;;;;4999370;28;20040;-77
2022/04/29 09:00:58;;;;;;;15.48;9.88;;;17.10;96.80;;;;;;5040632;28;20401;-77
2022/04/29 09:03:24;;;;;;;14.10;9.07;;;17.10;96.80;;;;;;5025425;28;20083;-77
2022/04/29 09:05:50;;;;;;;22.27;9.90;;;17.20;96.90;;;;;;5020395;28;20029;-77
2022/04/29 09:08:21;;;;;;;17.42;9.45;;;17.30;96.80;;;;;;5026604;28;20030;-77
2022/04/29 09:10:53;;;;;;;15.82;8.98;;;17.40;96.90;;;;;;5024627;28;20029;-77
2022/04/29 09:13:20;;;;;;;14.85;8.60;;;17.60;96.50;;;;;;5041047;28;20040;-77
2022/04/29 09:15:49;;;;;;;15.27;9.15;;;17.70;95.70;;;;;;5025493;28;20052;-77
2022/04/29 09:18:27;;;;;;;20.08;9.88;;;17.90;96.10;;;;;;5026389;28;20033;-78
2022/04/29 09:20:53;;;;;;;17.70;9.80;;;18.10;95.20;;;;;;5006341;28;20527;-77
2022/04/29 09:23:26;;;;;;;19.45;10.43;;;18.20;95.40;;;;;;5027560;28;20033;-77
2022/04/29 09:25:51;;;;;;;19.27;10.00;;;18.30;95.30;;;;;;5026207;28;20102;-77
2022/04/29 09:28:17;;;;;;;16.42;11.00;;;18.50;95.50;;;;;;5024981;28;20497;-77
2022/04/29 09:30:42;;;;;;;21.10;11.20;;;18.70;94.10;;;;;;5025089;28;20057;-77
2022/04/29 09:33:18;;;;;;;18.83;10.20;;;19.00;94.60;;;;;;5008496;28;20038;-77
2022/04/29 09:35:44;;;;;;;19.55;11.45;;;19.30;93.00;;;;;;5041992;28;20025;-78
2022/04/29 09:40:54;;;;;;;16.92;10.38;;;19.30;92.30;;;;;;5022578;28;20036;-78
2022/04/29 09:43:33;;;;;;;19.23;11.07;;;19.60;92.00;;;;;;5041198;28;20146;-77
2022/04/29 09:46:14;;;;;;;19.48;10.00;;;19.80;90.70;;;;;;5041399;28;20082;-77
2022/04/29 09:49:08;;;;;;;17.92;10.45;;;19.80;91.00;;;;;;5027590;28;20117;-78
2022/04/29 09:51:45;;;;;;;20.35;10.95;;;19.90;90.00;;;;;;5040353;28;20029;-77
2022/04/29 09:54:21;;;;;;;17.63;10.70;;;19.80;89.00;;;;;;5010478;28;20037;-77
2022/04/29 09:57:01;;;;;;;18.65;10.50;;;19.90;88.00;;;;;;5005923;28;20393;-77
2022/04/29 09:59:30;;;;;;;19.23;10.98;;;20.00;89.30;;;;;;5040965;28;20033;-77
2022/04/29 10:01:56;;;;;;;20.05;10.82;;;20.10;88.40;;;;;;5038394;28;20556;-77
2022/04/29 10:04:22;;;;;;;19.15;11.07;;;20.10;87.30;;;;;;5011350;28;20032;-77
2022/04/29 10:06:49;;;;;;;19.35;10.98;;;20.10;84.90;;;;;;5044110;28;20037;-77
2022/04/29 10:09:15;;;;;;;21.58;11.80;;;20.20;84.60;;;;;;5007290;28;20060;-78
2022/04/29 10:11:42;;;;;;;18.73;11.15;;;20.30;83.90;;;;;;5024395;28;20022;-78
2022/04/29 10:14:08;;;;;;;19.63;11.00;;;20.40;84.70;;;;;;5027335;28;20067;-78
2022/04/29 10:16:33;;;;;;;22.20;11.55;;;20.60;82.90;;;;;;5011897;28;20114;-78
2022/04/29 10:21:50;;;;;;;22.40;10.93;;;20.80;81.30;;;;;;5022613;28;20032;-78
2022/04/29 10:24:16;;;;;;;17.67;9.23;;;20.90;79.80;;;;;;5027782;28;20049;-78
2022/04/29 10:26:42;;;;;;;19.52;9.45;;;21.10;78.60;;;;;;5014458;28;20042;-78
2022/04/29 10:29:07;;;;;;;20.42;9.10;;;21.10;77.30;;;;;;5027855;28;20087;-78
2022/04/29 10:31:33;;;;;;;17.33;9.70;;;21.20;78.50;;;;;;5030671;28;20455;-78
2022/04/29 10:34:28;;;;;;;18.15;10.48;;;21.50;77.90;;;;;;5046000;28;20029;-78
2022/04/29 10:36:53;;;;;;;17.83;9.50;;;21.70;74.80;;;;;;5044060;28;20392;-79
2022/04/29 10:39:19;;;;;;;14.52;8.40;;;21.60;74.70;;;;;;5029775;28;20033;-79
2022/04/29 10:42:05;;;;;;;15.18;7.88;;;21.70;74.90;;;;;;5027500;28;20026;-79
2022/04/29 10:44:31;;;;;;;;;;;21.80;74.70;;;;;;5017806;28;20497;-79
2022/04/29 10:47:10;;;;;;;16.63;8.47;;;21.90;74.20;;;;;;5033319;28;19909;-79
2022/04/29 10:49:36;;;;;;;15.52;8.57;;;22.20;72.10;;;;;;5013546;28;20029;-79
2022/04/29 10:52:03;;;;;;;16.60;7.72;;;22.40;67.90;;;;;;4996544;28;20444;-79
2022/04/29 10:54:46;;;;;;;13.27;6.72;;;22.30;68.80;;;;;;4993001;28;20073;-79
2022/04/29 10:57:14;;;;;;;26.52;7.90;;;22.20;70.90;;;;;;5028026;28;20501;-80
2022/04/29 11:00:00;;;;;;;16.25;7.72;;;22.20;68.70;;;;;;5026273;28;20040;-79
2022/04/29 11:02:27;;;;;;;13.98;7.05;;;22.40;66.60;;;;;;5046113;28;20513;-79
2022/04/29 11:04:53;;;;;;;15.60;7.72;;;22.30;67.10;;;;;;5044342;28;20483;-79
2022/04/29 11:07:47;;;;;;;15.63;7.30;;;22.40;68.20;;;;;;5028176;28;20044;-79
2022/04/29 11:10:20;;;;;;;12.95;6.88;;;22.20;64.90;;;;;;5032256;28;20037;-79
2022/04/29 11:12:56;;;;;;;13.63;7.38;;;22.20;65.80;;;;;;5012915;28;20030;-80
2022/04/29 11:15:23;;;;;;;14.93;7.20;;;22.20;66.70;;;;;;5011496;28;20093;-80
2022/04/29 11:17:48;;;;;;;19.45;7.40;;;22.20;67.40;;;;;;5048763;28;20033;-80
2022/04/29 11:20:23;;;;;;;17.05;8.88;;;22.30;65.30;;;;;;5009890;28;20568;-80
2022/04/29 11:25:49;;;;;;;17.42;7.97;;;22.40;67.50;;;;;;5041482;28;20037;-80
2022/04/29 11:28:15;;;;;;;16.40;6.93;;;22.50;64.70;;;;;;5046402;28;20416;-81
2022/04/29 11:30:41;;;;;;;15.85;7.10;;;22.40;64.80;;;;;;5031929;28;20029;-80
2022/04/29 11:33:07;;;;;;;16.50;7.28;;;22.40;65.70;;;;;;4685410;28;9999623;-80
2022/04/29 11:35:33;;;;;;;16.55;7.60;;;22.40;65.30;;;;;;5013642;28;20092;-80
2022/04/29 11:37:58;;;;;;;17.27;7.20;;;22.50;64.60;;;;;;5032381;28;20038;-80
2022/04/29 11:40:26;;;;;;;13.45;7.60;;;22.60;65.00;;;;;;5010787;28;20047;-81
2022/04/29 11:42:51;;;;;;;17.08;7.45;;;22.60;63.10;;;;;;5024147;28;20041;-81
2022/04/29 11:45:19;;;;;;;17.88;7.22;;;22.80;64.10;;;;;;5027917;28;20033;-81
2022/04/29 11:47:45;;;;;;;16.80;7.95;;;23.10;62.20;;;;;;5024233;28;20040;-81
2022/04/29 11:50:10;;;;;;;9.15;5.70;;;23.10;63.30;;;;;;5030643;28;20029;-81
2022/04/29 11:52:43;;;;;;;7.97;5.55;;;23.10;64.20;;;;;;5046782;28;20025;-82
2022/04/29 11:55:13;;;;;;;14.95;7.07;;;23.00;64.10;;;;;;5029258;28;20108;-82
2022/04/29 11:57:49;;;;;;;16.05;8.43;;;23.30;63.80;;;;;;5009313;28;20032;-82
2022/04/29 12:00:24;;;;;;;17.10;7.53;;;23.50;60.40;;;;;;5010952;28;20045;-83
2022/04/29 12:02:50;;;;;;;12.90;7.60;;;23.50;58.40;;;;;;5009482;28;20485;-82
2022/04/29 12:05:15;;;;;;;13.95;7.15;;;23.50;57.60;;;;;;5018217;28;20045;-82
2022/04/29 12:07:47;;;;;;;12.48;7.13;;;23.20;60.70;;;;;;5010202;28;20121;-82
2022/04/29 12:10:22;;;;;;;14.35;6.53;;;23.50;59.20;;;;;;5031339;28;20418;-82
2022/04/29 12:12:49;;;;;;;15.88;6.03;;;23.60;59.30;;;;;;5010792;28;20130;-82
2022/04/29 12:15:24;;;;;;;11.95;6.68;;;23.70;59.90;;;;;;5046550;28;20037;-82
2022/04/29 12:17:49;;;;;;;17.73;7.15;;;23.90;60.10;;;;;;4994159;28;20489;-82
2022/04/29 12:20:19;;;;;;;11.00;6.63;;;24.10;59.80;;;;;;5015279;28;20040;-82
2022/04/29 12:22:47;;;;;;;11.52;6.60;;;24.20;59.20;;;;;;5012335;28;20041;-83
2022/04/29 12:25:29;;;;;;;19.38;6.55;;;24.30;58.20;;;;;;5027805;28;20378;-82
2022/04/29 12:28:23;;;;;;;11.00;5.75;;;24.40;56.70;;;;;;5009623;28;20030;-83
2022/04/29 12:36:48;;;;;;;15.77;7.35;;;24.60;58.00;;;;;;5025428;28;20147;-84
2022/04/29 12:39:13;;;;;;;10.77;6.20;;;24.80;56.20;;;;;;5017179;28;20546;-83
2022/04/29 12:41:40;;;;;;;13.77;6.28;;;24.90;57.30;;;;;;5026115;28;20033;-84
2022/04/29 12:44:10;;;;;;;13.98;6.55;;;24.70;55.00;;;;;;5010515;28;20080;-84
2022/04/29 12:46:35;;;;;;;12.88;7.18;;;24.70;54.80;;;;;;5030189;28;20480;-84
2022/04/29 12:49:02;;;;;;;12.35;6.13;;;24.70;54.60;;;;;;5013366;28;20025;-83
2022/04/29 12:51:34;;;;;;;13.38;6.50;;;24.70;53.70;;;;;;5010624;28;20025;-84
2022/04/29 12:54:05;;;;;;;12.25;6.22;;;24.30;54.10;;;;;;5040489;28;20113;-85
2022/04/29 12:56:38;;;;;;;12.98;6.07;;;24.30;54.90;;;;;;5043129;28;20091;-84
2022/04/29 12:59:04;;;;;;;11.18;5.38;;;24.20;54.60;;;;;;5009584;28;20524;-84
2022/04/29 13:01:39;;;;;;;10.95;5.38;;;24.00;54.20;;;;;;5025775;28;20053;-84
2022/04/29 13:04:06;;;;;;;14.20;6.63;;;24.00;55.50;;;;;;5027890;28;20129;-83
2022/04/29 13:06:34;;;;;;;12.48;4.93;;;23.90;55.60;;;;;;5023761;28;20026;-84
2022/04/29 13:09:01;;;;;;;13.20;6.07;;;23.70;54.90;;;;;;5028378;28;20033;-84
2022/04/29 13:11:26;;;;;;;11.40;6.10;;;23.60;55.00;;;;;;5042828;28;20037;-84
2022/04/29 13:13:52;;;;;;;10.32;6.25;;;23.60;55.00;;;;;;5016216;28;20582;-85
2022/04/29 13:16:19;;;;;;;7.53;5.07;;;23.50;54.40;;;;;;5015956;28;20038;-85